Time;durP1;ratioP1;P1;durP2;ratioP2;P2;SDS_P1;SDS_P2;PMS_P1;PMS_P2;Temp;Humidity;BMP_temperature;BMP_pressure;BME280_temperature;BME280_humidity;BME280_pressure;Samples;Min_cycle;Max_cycle;Signal;HPM_P1;HPM_P2
2022/02/03 00:01:27;;;;;;;24.08;16.73;;;;;;;19.22;41.94;101423.03;5014628;28;20026;-77
2022/02/03 00:04:08;;;;;;;25.20;17.42;;;;;;;19.24;41.85;101428.19;5014591;28;20057;-81
2022/02/03 00:06:53;;;;;;;16.10;11.50;;;;;;;19.24;41.72;101431.78;5014646;28;20026;-77
2022/02/03 00:09:48;;;;;;;21.35;15.60;;;;;;;19.22;41.90;101439.66;5014470;28;20025;-77
2022/02/03 00:25:16;;;;;;;31.90;18.65;;;;;;;19.27;42.01;101397.00;5014231;28;20026;-81
2022/02/03 00:27:58;;;;;;;43.10;24.90;;;;;;;19.23;42.06;101396.91;5014096;28;20389;-78
2022/02/03 00:31:35;;;;;;;64.57;37.65;;;;;;;19.35;41.70;101394.09;5014135;28;20034;-77
2022/02/03 00:33:59;;;;;;;53.00;29.77;;;;;;;19.28;41.88;101391.13;5004725;28;20472;-77
2022/02/03 00:36:30;;;;;;;47.40;27.80;;;;;;;19.27;41.90;101395.06;5013906;28;20133;-78
2022/02/03 00:50:04;;;;;;;130.95;78.43;;;;;;;19.20;42.01;101374.69;5013651;28;20459;-77
2022/02/03 00:52:33;;;;;;;26.58;16.27;;;;;;;19.24;41.87;101359.75;5013367;28;20473;-78
2022/02/03 00:54:59;;;;;;;28.25;17.00;;;;;;;19.27;42.04;101359.03;5013491;28;20116;-77
2022/02/03 00:57:32;;;;;;;125.25;66.47;;;;;;;19.29;42.04;101370.56;5013461;28;20100;-78
2022/02/03 01:00:08;;;;;;;31.77;18.70;;;;;;;19.24;42.14;101364.47;5013379;28;20037;-77
2022/02/03 01:03:06;;;;;;;30.08;15.27;;;;;;;19.25;41.99;101353.03;5013378;28;20036;-77
2022/02/03 01:05:36;;;;;;;24.23;14.35;;;;;;;19.18;42.09;101344.53;5012968;28;20033;-77
2022/02/03 01:08:07;;;;;;;47.53;25.88;;;;;;;19.26;41.84;101342.75;5013261;28;20020;-79
2022/02/03 01:10:40;;;;;;;66.78;34.47;;;;;;;19.19;42.09;101326.75;5013178;28;20121;-77
2022/02/03 01:13:18;;;;;;;41.15;22.95;;;;;;;19.17;42.15;101322.75;5013354;28;20088;-81
2022/02/03 01:15:54;;;;;;;115.72;65.18;;;;;;;19.17;41.91;101320.78;5013228;28;20609;-81
2022/02/03 01:35:01;;;;;;;25.33;15.25;;;;;;;19.14;41.88;101299.34;5013018;28;20064;-77
2022/02/03 01:45:50;;;;;;;77.47;48.38;;;;;;;19.08;42.36;101265.56;5012911;28;20040;-77
2022/02/03 01:48:36;;;;;;;17.60;10.77;;;;;;;19.13;42.09;101261.72;5012844;28;20030;-77
2022/02/03 01:53:48;;;;;;;21.90;13.95;;;;;;;19.11;42.23;101258.50;5012716;28;20488;-77
2022/02/03 01:56:22;;;;;;;15.20;9.50;;;;;;;19.17;42.02;101245.97;5012695;28;20026;-77
2022/02/03 01:58:56;;;;;;;20.75;14.30;;;;;;;19.02;42.36;101238.50;5012707;28;20591;-76
2022/02/03 02:01:30;;;;;;;17.75;10.90;;;;;;;19.13;42.18;101231.25;5012593;28;20064;-78
2022/02/03 02:04:14;;;;;;;24.05;12.18;;;;;;;19.10;42.05;101227.22;5012596;28;20026;-77
2022/02/03 02:07:27;;;;;;;23.35;12.77;;;;;;;19.05;42.28;101230.28;5012593;28;20048;-81
2022/02/03 02:13:41;;;;;;;38.85;18.08;;;;;;;19.07;42.23;101227.16;4975893;28;20501;-78
2022/02/03 02:38:56;;;;;;;9.88;5.22;;;;;;;19.15;42.08;101205.97;5012701;28;20041;-77
2022/02/03 02:44:39;;;;;;;9.95;5.82;;;;;;;19.11;41.92;101198.34;5016166;28;20394;-77
2022/02/03 02:47:15;;;;;;;8.48;6.05;;;;;;;19.07;42.19;101178.09;5015981;28;20034;-77
2022/02/03 02:49:53;;;;;;;6.72;5.47;;;;;;;19.15;42.00;101170.75;5015916;28;20497;-77
2022/02/03 02:52:34;;;;;;;5.90;4.88;;;;;;;19.14;41.82;101158.06;5015909;28;20037;-77
2022/02/03 03:01:43;;;;;;;7.72;5.35;;;;;;;19.17;41.99;101165.66;5015867;28;20109;-77
2022/02/03 03:03:40;;;;;;;6.68;5.20;;;;;;;18.95;42.15;101163.53;5012639;28;20030;-78
2022/02/03 03:32:10;;;;;;;7.85;5.20;;;;;;;18.85;42.28;101126.94;5015312;28;20408;-77
2022/02/03 03:36:58;;;;;;;7.32;4.97;;;;;;;18.78;42.39;101125.97;5015176;28;20049;-77
2022/02/03 03:39:30;;;;;;;10.35;6.35;;;;;;;18.73;42.59;101124.28;5014985;28;20050;-81
2022/02/03 03:42:02;;;;;;;7.53;5.80;;;;;;;18.47;43.04;101124.00;5015003;28;20113;-77
2022/02/03 03:44:30;;;;;;;11.45;7.10;;;;;;;18.53;43.03;101122.59;5015245;28;20057;-77
2022/02/03 03:47:02;;;;;;;10.65;6.75;;;;;;;18.64;42.80;101115.34;5014924;28;20022;-78
2022/02/03 03:49:43;;;;;;;12.05;6.60;;;;;;;18.74;42.60;101106.53;5015163;28;20030;-77
2022/02/03 03:52:15;;;;;;;11.13;7.07;;;;;;;18.62;42.73;101109.34;5015053;28;20022;-78
2022/02/03 03:54:58;;;;;;;10.35;6.68;;;;;;;18.80;42.60;101099.53;5013949;28;20093;-77
2022/02/03 04:33:12;;;;;;;7.90;6.13;;;;;;;18.18;44.10;101092.84;5013575;28;20046;-80
2022/02/03 04:40:47;;;;;;;6.88;5.10;;;;;;;18.52;43.15;101087.78;4994369;28;20030;-77
2022/02/03 04:56:22;;;;;;;6.07;3.83;;;;;;;18.61;42.94;101060.72;5013744;28;20033;-77
2022/02/03 05:05:07;;;;;;;7.68;3.88;;;;;;;18.55;43.21;101045.53;5033017;28;20667;-81
2022/02/03 05:42:18;;;;;;;6.88;3.35;;;;;;;18.58;42.80;101008.84;5010744;28;20481;-77
2022/02/03 06:05:03;;;;;;;5.32;1.88;;;;;;;18.12;43.78;100975.34;5032767;28;20080;-77
2022/02/03 06:07:41;;;;;;;3.17;2.13;;;;;;;18.29;43.48;100972.22;5031343;28;20083;-77
2022/02/03 06:13:01;;;;;;;4.10;2.08;;;;;;;18.37;43.30;100958.56;5032465;28;20141;-78
2022/02/03 06:15:38;;;;;;;3.70;2.08;;;;;;;18.36;43.15;100974.34;5032381;28;20029;-77
2022/02/03 06:29:05;;;;;;;4.85;2.55;;;;;;;18.47;43.35;100955.22;5036524;28;20072;-78
2022/02/03 06:31:37;;;;;;;4.30;2.00;;;;;;;18.54;43.13;100955.38;5035963;28;20046;-78
2022/02/03 06:34:03;;;;;;;2.95;2.10;;;;;;;18.57;43.15;100949.13;5035999;28;20468;-77
2022/02/03 06:36:29;;;;;;;4.47;2.13;;;;;;;18.57;43.29;100949.13;5036066;28;20423;-78
2022/02/03 06:38:55;;;;;;;7.75;2.40;;;;;;;18.58;43.25;100968.13;5035998;28;20084;-77
2022/02/03 06:41:20;;;;;;;6.22;2.50;;;;;;;18.54;43.46;100970.03;5035926;28;20025;-78
2022/02/03 06:43:46;;;;;;;5.68;2.33;;;;;;;18.41;43.93;100970.50;5035952;28;20075;-78
2022/02/03 06:46:13;;;;;;;6.05;2.40;;;;;;;18.47;43.78;100958.78;5035851;28;20083;-77
2022/02/03 06:48:43;;;;;;;5.60;2.40;;;;;;;18.48;43.74;100967.91;5035805;28;20492;-77
2022/02/03 06:51:18;;;;;;;7.30;3.00;;;;;;;18.56;43.62;100964.91;5035747;28;20025;-81
2022/02/03 06:53:48;;;;;;;6.57;2.33;;;;;;;18.74;43.28;100965.38;5035707;28;20064;-78
2022/02/03 06:56:34;;;;;;;5.60;2.08;;;;;;;18.69;43.35;100962.88;5035980;28;20033;-79
2022/02/03 06:59:01;;;;;;;4.47;2.28;;;;;;;18.62;43.19;100951.63;5035673;28;20033;-77
2022/02/03 07:01:36;;;;;;;6.80;2.38;;;;;;;18.63;43.32;100969.00;5035586;28;20104;-77
2022/02/03 07:04:11;;;;;;;3.95;2.40;;;;;;;18.53;43.67;100956.56;5035412;28;20117;-79
2022/02/03 07:06:36;;;;;;;6.10;2.15;;;;;;;18.58;43.49;100959.03;5035532;28;20044;-77
2022/02/03 07:09:07;;;;;;;3.40;2.20;;;;;;;18.46;43.63;100953.63;5035429;28;20021;-78
2022/02/03 07:11:33;;;;;;;5.95;2.30;;;;;;;18.61;43.43;100952.78;5035451;28;20036;-76
2022/02/03 07:13:58;;;;;;;9.50;2.60;;;;;;;18.69;43.17;100943.50;5034182;28;20033;-78
2022/02/03 07:16:24;;;;;;;3.58;2.25;;;;;;;18.65;43.17;100945.34;5035229;28;20045;-77
2022/02/03 07:18:49;;;;;;;4.38;2.10;;;;;;;18.73;42.92;100952.66;5035268;28;20032;-77
2022/02/03 07:21:15;;;;;;;6.65;2.25;;;;;;;18.68;43.16;100955.72;5035554;28;20025;-77
2022/02/03 07:23:41;;;;;;;8.25;2.10;;;;;;;18.73;43.08;100952.66;5035150;28;20468;-77
2022/02/03 07:26:06;;;;;;;5.65;2.28;;;;;;;18.68;43.33;100952.97;5035397;28;20071;-75
2022/02/03 07:28:34;;;;;;;4.75;2.08;;;;;;;18.87;42.67;100949.41;5034945;28;20036;-76
2022/02/03 07:31:00;;;;;;;6.22;2.00;;;;;;;18.91;42.43;100952.25;5034799;28;20037;-76
2022/02/03 07:33:26;;;;;;;4.72;2.50;;;;;;;18.89;42.79;100943.50;5034114;28;20037;-76
2022/02/03 07:35:52;;;;;;;6.70;2.15;;;;;;;18.68;43.04;100935.56;5034870;28;20030;-76
2022/02/03 07:38:21;;;;;;;5.60;2.17;;;;;;;18.81;42.76;100943.34;5034941;28;20104;-76
2022/02/03 07:40:48;;;;;;;5.03;2.30;;;;;;;18.78;42.71;100937.75;5035081;28;20472;-76
2022/02/03 07:43:14;;;;;;;3.97;2.40;;;;;;;18.55;43.36;100940.38;5034870;28;20060;-76
2022/02/03 07:45:40;;;;;;;5.40;2.50;;;;;;;18.61;43.23;100944.47;5034712;28;20047;-78
2022/02/03 07:48:05;;;;;;;5.68;2.95;;;;;;;18.49;43.71;100948.16;5034659;28;20033;-76
2022/02/03 07:50:31;;;;;;;5.90;2.88;;;;;;;18.57;43.15;100955.44;5034690;28;20028;-78
2022/02/03 07:52:57;;;;;;;4.88;2.83;;;;;;;18.72;43.08;100953.81;5034790;28;20060;-77
2022/02/03 07:55:22;;;;;;;5.28;2.67;;;;;;;18.70;43.25;100942.31;5034535;28;20026;-77
2022/02/03 07:57:51;;;;;;;8.13;2.88;;;;;;;18.73;43.25;100938.81;5034811;28;20504;-77
2022/02/03 08:00:18;;;;;;;7.97;3.70;;;;;;;18.74;43.19;100939.63;5034584;28;20021;-81
2022/02/03 08:02:44;;;;;;;6.65;3.30;;;;;;;18.76;43.39;100937.31;5034348;28;20029;-77
2022/02/03 08:05:12;;;;;;;4.78;2.85;;;;;;;18.86;42.95;100936.72;5034264;28;20029;-77
2022/02/03 08:08:03;;;;;;;7.95;3.05;;;;;;;18.73;43.26;100947.13;5024916;28;20427;-77
2022/02/03 08:13:03;;;;;;;5.57;3.70;;;;;;;18.73;43.30;100933.28;5011788;28;20060;-77
2022/02/03 08:15:31;;;;;;;6.18;4.28;;;;;;;18.72;43.29;100944.72;5014399;28;20383;-77
2022/02/03 08:18:02;;;;;;;9.38;6.13;;;;;;;18.72;43.37;100930.88;5014022;28;20014;-79
2022/02/03 08:20:28;;;;;;;9.85;5.03;;;;;;;18.76;43.25;100932.56;5013906;28;20051;-77
2022/02/03 08:23:39;;;;;;;7.15;4.57;;;;;;;18.77;43.10;100931.41;5013838;28;20026;-79
2022/02/03 08:25:46;;;;;;;23.00;15.40;;;;;;;18.83;43.07;100924.41;5011301;28;20030;-78
2022/02/03 08:28:34;;;;;;;22.08;18.92;;;;;;;18.86;42.98;100928.41;5013836;28;20018;-78
2022/02/03 08:31:09;;;;;;;10.27;6.32;;;;;;;18.93;43.03;100916.69;5013567;28;20074;-78
2022/02/03 08:33:35;;;;;;;9.13;5.88;;;;;;;18.96;43.04;100918.72;5014198;28;20022;-82
2022/02/03 08:36:06;;;;;;;13.40;6.93;;;;;;;18.91;43.03;100916.25;5014175;28;20029;-79
2022/02/03 08:43:28;;;;;;;7.68;4.30;;;;;;;19.03;42.64;100900.28;5014353;28;20372;-79
2022/02/03 08:45:54;;;;;;;7.82;4.35;;;;;;;19.04;42.62;100917.69;5014171;28;20365;-79
2022/02/03 08:48:20;;;;;;;8.05;3.00;;;;;;;18.92;42.89;100909.56;5013930;28;20033;-79
2022/02/03 08:50:46;;;;;;;8.18;3.60;;;;;;;18.82;42.90;100897.91;5013834;28;20058;-79
2022/02/03 08:53:18;;;;;;;5.63;2.75;;;;;;;18.86;42.89;100906.28;5013648;28;20021;-79
2022/02/03 10:00:00;;;;;;;12.32;3.20;;;;;;;19.56;41.95;100833.13;5012866;28;20026;-82
2022/02/03 10:02:24;;;;;;;8.32;2.50;;;;;;;19.72;41.88;100828.25;5012272;28;20038;-79
2022/02/03 10:04:54;;;;;;;5.07;2.30;;;;;;;19.73;41.71;100837.41;5010709;28;20475;-79
2022/02/03 10:07:30;;;;;;;5.28;2.00;;;;;;;19.94;41.48;100827.41;5012706;28;20069;-78
2022/02/03 10:10:00;;;;;;;15.40;7.65;;;;;;;20.07;41.26;100833.53;5012762;28;20104;-78
2022/02/03 10:12:39;;;;;;;23.88;9.32;;;;;;;19.89;41.35;100830.50;5012656;28;20054;-79
2022/02/03 10:15:08;;;;;;;13.00;3.97;;;;;;;20.23;40.85;100827.81;5012431;28;20489;-78
2022/02/03 10:17:39;;;;;;;3.50;2.08;;;;;;;20.16;40.95;100820.19;5012520;28;20030;-82
2022/02/03 10:20:12;;;;;;;21.55;12.50;;;;;;;20.29;40.56;100829.06;5012619;28;20385;-79
2022/02/03 10:22:49;;;;;;;15.43;7.28;;;;;;;20.30;40.47;100824.31;5012667;28;20030;-78
2022/02/03 10:25:25;;;;;;;13.98;5.72;;;;;;;20.30;40.51;100816.00;5012216;28;20037;-82
2022/02/03 10:27:59;;;;;;;9.60;5.07;;;;;;;20.19;40.72;100813.91;5011677;28;20034;-78
2022/02/03 10:30:34;;;;;;;6.22;3.85;;;;;;;20.06;41.12;100817.28;5012453;28;20117;-78
2022/02/03 10:32:59;;;;;;;9.07;1.98;;;;;;;20.13;40.97;100817.38;5012287;28;20046;-78
2022/02/03 10:35:36;;;;;;;5.75;3.08;;;;;;;20.01;41.43;100817.59;5011146;28;20033;-78
2022/02/03 10:38:30;;;;;;;6.43;2.50;;;;;;;20.32;41.00;100805.31;5012420;28;20204;-78
2022/02/03 10:49:16;;;;;;;5.05;1.77;;;;;;;20.26;40.91;100784.66;5011905;28;20049;-78
2022/02/03 11:00:55;;;;;;;7.13;2.40;;;;;;;20.26;40.96;100779.09;5009304;28;20029;-78
2022/02/03 11:05:43;;;;;;;4.93;1.83;;;;;;;20.63;40.48;100781.91;5015665;28;20030;-78
2022/02/03 11:08:15;;;;;;;13.88;2.53;;;;;;;20.59;40.54;100765.22;5011631;28;20064;-79
2022/02/03 11:10:44;;;;;;;10.90;2.20;;;;;;;20.73;40.25;100782.03;5013457;28;20025;-78
2022/02/03 11:13:13;;;;;;;18.40;4.18;;;;;;;20.62;40.50;100772.00;5015290;28;20068;-81
2022/02/03 11:15:41;;;;;;;5.32;1.52;;;;;;;20.73;40.14;100776.50;5013122;28;20392;-78
2022/02/03 11:18:08;;;;;;;10.05;2.80;;;;;;;20.80;40.11;100772.19;5015314;28;20026;-78
2022/02/03 11:20:41;;;;;;;12.70;3.08;;;;;;;20.55;40.35;100749.69;5015497;28;20037;-78
2022/02/03 11:34:17;;;;;;;8.15;2.50;;;;;;;21.02;39.72;100744.22;5003381;28;20046;-78
2022/02/03 11:59:09;;;;;;;11.90;3.75;;;;;;;21.38;39.54;100702.03;5014902;28;20026;-80
2022/02/03 12:17:57;;;;;;;8.50;2.40;;;;;;;21.62;39.84;100678.38;4992082;28;20022;-79
2022/02/03 12:20:35;;;;;;;7.93;2.10;;;;;;;21.47;40.03;100669.16;5004474;28;20467;-79
2022/02/03 12:23:07;;;;;;;12.57;3.92;;;;;;;21.87;39.31;100662.59;5014028;28;20026;-79
2022/02/03 12:25:49;;;;;;;19.48;4.65;;;;;;;21.80;39.05;100662.56;5012817;28;20025;-79
2022/02/03 12:28:32;;;;;;;7.07;2.42;;;;;;;21.65;39.34;100639.44;5012709;28;20068;-79
2022/02/03 12:39:06;;;;;;;6.90;2.08;;;;;;;21.63;38.92;100641.03;5014504;28;20068;-79
2022/02/03 12:41:42;;;;;;;7.15;2.35;;;;;;;21.52;39.27;100633.44;5014198;28;20030;-79
2022/02/03 12:44:21;;;;;;;6.65;2.35;;;;;;;21.89;38.73;100637.94;5012689;28;20050;-79
2022/02/03 12:46:50;;;;;;;9.52;2.35;;;;;;;21.83;39.14;100618.06;5016986;28;20032;-87
2022/02/03 12:49:19;;;;;;;7.53;1.80;;;;;;;21.95;38.77;100621.69;5015298;28;20030;-85
2022/02/03 12:51:45;;;;;;;12.80;4.18;;;;;;;21.97;38.25;100625.66;5015808;28;20025;-86
2022/02/03 12:54:12;;;;;;;6.70;2.08;;;;;;;21.80;38.58;100607.72;5017745;28;20041;-85
2022/02/03 12:56:39;;;;;;;10.90;4.88;;;;;;;21.92;38.18;100612.16;5017256;28;20033;-86
2022/02/03 12:59:09;;;;;;;13.18;5.82;;;;;;;21.84;38.33;100618.88;5019452;28;20416;-96
2022/02/03 13:01:40;;;;;;;7.55;2.03;;;;;;;21.67;38.38;100608.47;5029952;28;20030;-95
2022/02/03 13:04:26;;;;;;;3.85;1.73;;;;;;;21.82;38.26;100608.13;5024227;28;20022;-94
2022/02/03 13:07:18;;;;;;;15.38;3.65;;;;;;;21.63;38.32;100596.56;5030458;28;20030;-89
2022/02/03 13:09:53;;;;;;;7.22;2.63;;;;;;;21.44;38.83;100612.34;5019165;28;20034;-96
2022/02/03 13:12:30;;;;;;;10.73;3.25;;;;;;;21.46;38.60;100607.22;5017476;28;20021;-95
2022/02/03 13:14:59;;;;;;;5.70;1.80;;;;;;;21.83;38.05;100589.44;5016371;28;20125;-94
2022/02/03 13:17:33;;;;;;;5.43;1.70;;;;;;;21.30;38.99;100596.38;5015931;28;20022;-96
2022/02/03 13:20:16;;;;;;;10.52;2.17;;;;;;;21.37;38.51;100584.50;5020706;28;20072;-94
2022/02/03 13:22:52;;;;;;;5.05;1.52;;;;;;;21.70;38.19;100582.69;4998374;28;20054;-96
2022/02/03 13:25:32;;;;;;;6.63;1.77;;;;;;;21.88;38.17;100575.16;5011130;28;20029;-94
2022/02/03 13:28:10;;;;;;;;;;;;;;;21.84;38.08;100577.97;5022963;28;20037;-87
2022/02/03 13:31:04;;;;;;;4.53;1.92;;;;;;;22.03;37.68;100574.00;5019421;28;19917;-95
2022/02/03 13:33:32;;;;;;;13.27;2.78;;;;;;;22.20;37.54;100560.53;5027924;28;20038;-94
2022/02/03 13:36:19;;;;;;;5.63;1.98;;;;;;;22.31;37.37;100548.22;5030310;28;20034;-95
2022/02/03 13:39:11;;;;;;;5.93;1.80;;;;;;;22.13;37.27;100564.91;5026736;28;20038;-95
2022/02/03 13:41:46;;;;;;;4.88;1.60;;;;;;;22.17;37.24;100564.13;5021593;28;20025;-88
2022/02/03 13:44:16;;;;;;;3.17;1.33;;;;;;;22.10;37.15;100553.78;5022020;28;20036;-95
2022/02/03 13:46:45;;;;;;;12.27;9.38;;;;;;;22.15;36.93;100559.75;5022888;28;20372;-94
2022/02/03 13:49:16;;;;;;;4.38;2.03;;;;;;;21.73;37.82;100549.31;5017503;28;20068;-94
2022/02/03 13:51:44;;;;;;;3.42;1.35;;;;;;;21.83;37.32;100554.09;5016439;28;20084;-95
2022/02/03 14:10:27;;;;;;;18.42;2.95;;;;;;;21.87;37.05;100535.44;5014122;28;20061;-93
2022/02/03 14:14:26;;;;;;;7.93;1.80;;;;;;;22.31;36.44;100498.13;5010785;28;20572;-85
2022/02/03 14:22:10;;;;;;;4.10;1.58;;;;;;;21.89;37.25;100474.63;5011796;28;20028;-87
2022/02/03 14:27:25;;;;;;;24.30;5.78;;;;;;;22.14;36.50;100471.09;5011376;28;20033;-85
2022/02/03 14:29:54;;;;;;;6.38;1.95;;;;;;;22.26;36.39;100445.66;5018534;28;20036;-90
2022/02/03 14:32:32;;;;;;;7.95;2.15;;;;;;;22.22;36.39;100436.53;5023074;28;20120;-88
2022/02/03 14:34:58;;;;;;;7.32;1.63;;;;;;;22.26;36.36;100426.16;5010034;28;20056;-87
2022/02/03 14:40:17;;;;;;;15.60;4.47;;;;;;;21.99;36.54;100439.69;5018039;28;20076;-94
2022/02/03 14:42:44;;;;;;;5.30;1.67;;;;;;;21.76;37.00;100428.13;5017079;28;20034;-91
2022/02/03 14:45:13;;;;;;;22.00;5.68;;;;;;;21.88;36.54;100420.22;5017025;28;20026;-92
2022/02/03 14:47:39;;;;;;;17.60;3.83;;;;;;;22.10;36.42;100423.81;5016894;28;20022;-94
2022/02/03 14:50:06;;;;;;;15.32;3.83;;;;;;;22.19;36.53;100422.59;5018211;28;20048;-94
2022/02/03 14:52:44;;;;;;;8.95;2.03;;;;;;;22.26;36.33;100417.03;5018168;28;20065;-92
2022/02/03 14:58:02;;;;;;;17.00;3.47;;;;;;;22.24;36.71;100405.50;5009020;28;20069;-91
2022/02/03 15:00:29;;;;;;;12.98;3.38;;;;;;;22.20;36.71;100401.94;5000741;28;20057;-91
2022/02/03 15:02:56;;;;;;;7.07;1.90;;;;;;;22.05;36.98;100412.25;4998711;28;20789;-91
2022/02/03 15:05:26;;;;;;;9.77;3.08;;;;;;;21.84;37.42;100396.38;5007940;28;20022;-95
2022/02/03 15:07:57;;;;;;;13.65;3.88;;;;;;;21.80;37.44;100406.69;5019988;28;20021;-96
2022/02/03 15:13:14;;;;;;;8.82;2.10;;;;;;;22.11;36.78;100400.34;5020489;28;20045;-90
2022/02/03 15:15:40;;;;;;;7.95;2.63;;;;;;;21.82;37.38;100376.50;5017228;28;20052;-92
2022/02/03 15:18:08;;;;;;;13.02;2.80;;;;;;;21.78;37.25;100381.28;5016723;28;20022;-93
2022/02/03 15:20:35;;;;;;;15.50;3.30;;;;;;;21.88;37.32;100364.59;5016792;28;20026;-93
2022/02/03 15:23:01;;;;;;;9.98;2.28;;;;;;;21.97;37.29;100366.16;5016233;28;20077;-93
2022/02/03 15:25:27;;;;;;;14.13;3.00;;;;;;;21.93;37.12;100365.38;5016237;28;20026;-94
2022/02/03 15:27:55;;;;;;;10.05;3.08;;;;;;;22.08;36.96;100373.34;5016434;28;20503;-92
2022/02/03 15:30:21;;;;;;;18.58;4.00;;;;;;;22.03;37.18;100357.00;5016406;28;20029;-90
2022/02/03 15:32:46;;;;;;;8.50;2.65;;;;;;;22.08;37.25;100356.66;5015999;28;20061;-92
2022/02/03 15:35:22;;;;;;;6.65;2.08;;;;;;;22.14;36.89;100349.47;5016078;28;20511;-91
2022/02/03 15:37:48;;;;;;;24.95;3.88;;;;;;;22.07;37.21;100357.03;5016486;28;20041;-92
2022/02/03 15:40:19;;;;;;;10.57;2.90;;;;;;;22.12;36.87;100346.28;5016174;28;20033;-91
2022/02/03 15:42:57;;;;;;;9.40;2.75;;;;;;;21.92;37.50;100344.31;5017877;28;20041;-95
2022/02/03 15:45:23;;;;;;;11.70;3.25;;;;;;;22.20;36.86;100352.63;5016546;28;20038;-90
2022/02/03 15:48:00;;;;;;;17.73;3.33;;;;;;;22.21;36.90;100350.63;5017719;28;20030;-93
2022/02/03 16:01:35;;;;;;;11.32;3.80;;;;;;;21.95;37.30;100318.50;5020572;28;20037;-91
2022/02/03 16:04:10;;;;;;;20.73;5.65;;;;;;;21.97;36.80;100314.09;5019210;28;20026;-94
2022/02/03 16:15:13;;;;;;;16.92;4.40;;;;;;;22.00;36.86;100293.84;5016394;28;20032;-92
2022/02/03 16:17:50;;;;;;;15.30;3.38;;;;;;;21.71;36.82;100289.53;5016040;28;20034;-92
2022/02/03 16:20:27;;;;;;;12.38;3.15;;;;;;;21.85;36.81;100308.97;5015031;28;20448;-90
2022/02/03 16:52:44;;;;;;;10.43;2.90;;;;;;;21.61;36.98;100238.28;5015651;28;20040;-90
2022/02/03 16:55:14;;;;;;;23.00;4.47;;;;;;;21.79;36.51;100222.38;5014381;28;20334;-90
2022/02/03 16:57:40;;;;;;;14.55;4.10;;;;;;;21.82;36.38;100215.22;5014235;28;20029;-91
2022/02/03 17:00:11;;;;;;;24.90;5.10;;;;;;;21.60;36.56;100209.69;5013042;28;20088;-91
2022/02/03 17:02:37;;;;;;;17.30;5.18;;;;;;;21.65;36.58;100216.84;5014084;28;20080;-89
2022/02/03 17:05:03;;;;;;;15.02;4.78;;;;;;;21.37;37.08;100230.78;5013704;28;20034;-90
2022/02/03 17:07:29;;;;;;;15.38;4.55;;;;;;;21.24;37.17;100231.19;5014203;28;20025;-91
2022/02/03 17:09:56;;;;;;;20.55;4.38;;;;;;;21.26;37.34;100233.56;5014267;28;20157;-88
2022/02/03 17:12:23;;;;;;;30.88;7.43;;;;;;;21.32;37.23;100218.09;5017602;28;20438;-90
2022/02/03 17:14:49;;;;;;;34.15;8.88;;;;;;;21.30;37.41;100220.47;5004664;28;20063;-90
2022/02/03 17:17:16;;;;;;;13.43;3.17;;;;;;;21.35;37.11;100203.41;5013620;28;20046;-92
2022/02/03 17:19:42;;;;;;;17.38;4.22;;;;;;;21.43;36.89;100204.97;5013690;28;20443;-93
2022/02/03 17:22:10;;;;;;;17.40;5.53;;;;;;;21.39;36.90;100193.09;5013522;28;20022;-82
2022/02/03 17:24:40;;;;;;;15.55;4.40;;;;;;;21.04;37.59;100203.00;5013248;28;20029;-87
2022/02/03 17:27:22;;;;;;;19.67;4.75;;;;;;;21.20;37.45;100207.34;5013606;28;20030;-91
2022/02/03 17:30:02;;;;;;;12.68;3.97;;;;;;;21.20;37.16;100199.81;5013599;28;20030;-91
2022/02/03 17:55:23;;;;;;;16.95;4.22;;;;;;;21.23;37.46;100174.00;5014772;28;20075;-91
2022/02/03 18:49:04;;;;;;;25.40;4.28;;;;;;;20.91;39.37;100151.81;4991697;28;20029;-79
2022/02/03 18:50:47;;;;;;;18.60;4.95;;;;;;;21.29;38.54;100143.84;4991837;28;20038;-76
2022/02/03 18:53:30;;;;;;;13.50;4.43;;;;;;;21.06;39.44;100147.84;4991838;28;20080;-78
2022/02/03 18:56:12;;;;;;;20.38;4.80;;;;;;;20.65;40.56;100146.66;4991636;28;20038;-77
2022/02/03 18:58:54;;;;;;;18.95;5.97;;;;;;;21.00;39.53;100146.63;4990302;28;20038;-75
2022/02/03 19:10:03;;;;;;;14.13;3.97;;;;;;;20.88;40.46;100169.28;5009695;28;20080;-74
2022/02/03 20:04:20;;;;;;;5.63;1.13;;;;;;;17.92;40.42;100387.69;4988602;28;20382;-87
2022/02/03 20:09:28;;;;;;;2.25;1.58;;;;;;;17.94;40.47;100388.09;5000467;28;20068;-70
2022/02/03 20:11:54;;;;;;;2.05;1.10;;;;;;;18.03;40.19;100380.34;5008716;28;20022;-73
2022/02/03 20:14:20;;;;;;;1.95;1.10;;;;;;;17.62;41.00;100388.34;5011905;28;20053;-71
2022/02/03 20:16:47;;;;;;;6.68;2.95;;;;;;;17.78;40.79;100396.53;5011321;28;20030;-71
2022/02/03 20:19:13;;;;;;;3.35;1.60;;;;;;;17.89;40.70;100408.56;5011641;28;20038;-71
2022/02/03 20:21:41;;;;;;;8.50;2.70;;;;;;;18.00;40.46;100406.78;5011799;28;20034;-70
2022/02/03 20:24:07;;;;;;;4.50;1.83;;;;;;;17.76;40.59;100404.41;5010888;28;20026;-75
2022/02/03 20:26:35;;;;;;;4.97;1.50;;;;;;;17.82;40.58;100416.72;5012589;28;20033;-75
2022/02/03 20:29:01;;;;;;;4.60;1.85;;;;;;;17.91;40.57;100424.75;5013058;28;20608;-74
2022/02/03 20:31:26;;;;;;;5.97;2.03;;;;;;;17.83;40.59;100436.88;4998155;28;20042;-74
2022/02/03 20:33:53;;;;;;;5.30;1.80;;;;;;;17.88;40.42;100428.28;5012289;28;20029;-76
2022/02/03 20:36:18;;;;;;;5.30;2.13;;;;;;;17.78;40.74;100426.94;5012508;28;20066;-74
2022/02/03 20:38:44;;;;;;;7.07;5.32;;;;;;;17.84;40.61;100419.94;5012572;28;20054;-75
2022/02/03 20:41:10;;;;;;;6.95;1.67;;;;;;;17.77;40.59;100430.06;5013236;28;20049;-77
2022/02/03 20:43:35;;;;;;;3.92;1.65;;;;;;;17.75;40.64;100439.50;5013062;28;20029;-77
2022/02/03 20:46:01;;;;;;;4.07;1.70;;;;;;;17.15;40.86;100435.59;5013028;28;20476;-75
2022/02/03 20:48:29;;;;;;;4.22;1.60;;;;;;;17.55;40.91;100437.16;5013255;28;20026;-75
2022/02/03 20:50:56;;;;;;;5.32;1.73;;;;;;;17.62;40.75;100449.13;5013029;28;20042;-75
2022/02/03 20:53:22;;;;;;;8.20;2.55;;;;;;;17.71;40.24;100446.16;5012374;28;20042;-75
2022/02/03 20:55:48;;;;;;;9.48;2.38;;;;;;;17.65;40.52;100440.09;5012624;28;20048;-75
2022/02/03 20:58:18;;;;;;;6.53;2.20;;;;;;;17.54;40.74;100446.63;5013012;28;20026;-75
2022/02/03 21:00:55;;;;;;;5.50;2.03;;;;;;;17.54;40.78;100449.38;5009822;28;20029;-75
2022/02/03 21:04:00;;;;;;;9.90;2.97;;;;;;;17.56;40.67;100453.34;5012965;28;20396;-76
2022/02/03 21:06:15;;;;;;;6.60;2.20;;;;;;;17.58;40.56;100453.78;5011483;28;20492;-78
2022/02/03 21:08:44;;;;;;;6.85;2.10;;;;;;;17.47;40.60;100466.63;5011959;28;20022;-77
2022/02/03 21:11:10;;;;;;;11.23;2.70;;;;;;;17.50;40.32;100465.06;5012922;28;20065;-76
2022/02/03 21:13:36;;;;;;;5.15;1.75;;;;;;;17.47;40.47;100472.13;5012612;28;20026;-77
2022/02/03 21:16:04;;;;;;;4.05;1.90;;;;;;;17.41;40.50;100459.78;5012644;28;20060;-77
2022/02/03 21:18:32;;;;;;;6.15;2.30;;;;;;;17.57;40.21;100466.00;5012475;28;20022;-77
2022/02/03 21:20:58;;;;;;;32.28;16.50;;;;;;;17.52;40.31;100469.06;5012286;28;20025;-75
2022/02/03 21:23:23;;;;;;;12.50;3.90;;;;;;;17.57;40.14;100468.75;5012122;28;20369;-76
2022/02/03 21:25:53;;;;;;;4.57;2.15;;;;;;;17.59;40.17;100474.72;5012231;28;20039;-75
2022/02/03 21:28:25;;;;;;;;;;;;;;;17.44;40.21;100472.84;5012541;28;20038;-76
2022/02/03 21:30:52;;;;;;;6.43;1.70;;;;;;;17.52;40.07;100491.16;5012095;28;19909;-74
2022/02/03 21:33:31;;;;;;;5.47;1.60;;;;;;;17.55;40.13;100490.44;5011990;28;20081;-76
2022/02/03 21:36:07;;;;;;;6.72;1.85;;;;;;;17.57;39.88;100499.16;5012420;28;20434;-76
2022/02/03 21:38:34;;;;;;;5.15;2.33;;;;;;;17.57;40.05;100501.13;5011328;28;20049;-76
2022/02/03 21:41:01;;;;;;;2.83;0.90;;;;;;;17.46;40.27;100501.72;5012019;28;20030;-74
2022/02/03 21:43:26;;;;;;;3.67;1.10;;;;;;;17.44;40.37;100503.22;5013003;28;20033;-74
2022/02/03 21:45:52;;;;;;;4.13;1.30;;;;;;;17.38;40.22;100510.22;5012985;28;20033;-75
2022/02/03 21:48:17;;;;;;;4.63;1.58;;;;;;;17.32;40.42;100509.72;5012829;28;20037;-75
2022/02/03 21:50:43;;;;;;;8.88;2.50;;;;;;;17.35;40.37;100514.50;5012928;28;20400;-75
2022/02/03 21:53:23;;;;;;;3.78;1.60;;;;;;;17.36;40.29;100523.59;5011462;28;20424;-75
2022/02/03 21:55:51;;;;;;;7.97;1.73;;;;;;;17.45;40.29;100526.91;5012929;28;20029;-74